sensor_id;sensor_type;location;lat;lon;timestamp;P1;durP1;ratioP1;P2;durP2;ratioP2
30068;SDS011;16894;49.456;10.644;2023-06-04T00:00:44;91.03;;;85.37;;
30068;SDS011;16894;49.456;10.644;2023-06-04T00:03:11;76.60;;;71.93;;
30068;SDS011;16894;49.456;10.644;2023-06-04T00:05:36;78.73;;;74.10;;
30068;SDS011;16894;49.456;10.644;2023-06-04T00:08:02;76.07;;;71.40;;
30068;SDS011;16894;49.456;10.644;2023-06-04T00:10:28;67.20;;;63.33;;
30068;SDS011;16894;49.456;10.644;2023-06-04T00:12:53;77.23;;;72.57;;
30068;SDS011;16894;49.456;10.644;2023-06-04T00:15:19;75.40;;;71.03;;
30068;SDS011;16894;49.456;10.644;2023-06-04T00:17:45;72.83;;;68.53;;
30068;SDS011;16894;49.456;10.644;2023-06-04T00:20:10;62.67;;;58.87;;
30068;SDS011;16894;49.456;10.644;2023-06-04T00:22:36;64.47;;;60.50;;
30068;SDS011;16894;49.456;10.644;2023-06-04T00:25:02;66.00;;;62.08;;
30068;SDS011;16894;49.456;10.644;2023-06-04T00:29:54;58.65;;;55.15;;
30068;SDS011;16894;49.456;10.644;2023-06-04T00:32:20;57.47;;;54.07;;
30068;SDS011;16894;49.456;10.644;2023-06-04T00:34:53;61.28;;;57.75;;
30068;SDS011;16894;49.456;10.644;2023-06-04T00:37:21;61.67;;;58.05;;
30068;SDS011;16894;49.456;10.644;2023-06-04T00:39:47;54.45;;;51.03;;
30068;SDS011;16894;49.456;10.644;2023-06-04T00:42:13;48.22;;;44.95;;
30068;SDS011;16894;49.456;10.644;2023-06-04T00:44:39;46.28;;;43.55;;
30068;SDS011;16894;49.456;10.644;2023-06-04T00:47:12;41.63;;;38.95;;
30068;SDS011;16894;49.456;10.644;2023-06-04T00:49:42;45.22;;;42.17;;
30068;SDS011;16894;49.456;10.644;2023-06-04T00:52:08;51.77;;;48.67;;
30068;SDS011;16894;49.456;10.644;2023-06-04T00:54:35;37.22;;;35.08;;
30068;SDS011;16894;49.456;10.644;2023-06-04T00:57:04;46.45;;;43.70;;
30068;SDS011;16894;49.456;10.644;2023-06-04T00:59:31;40.10;;;37.58;;
30068;SDS011;16894;49.456;10.644;2023-06-04T01:02:02;38.05;;;35.78;;
30068;SDS011;16894;49.456;10.644;2023-06-04T01:04:46;36.35;;;34.22;;
30068;SDS011;16894;49.456;10.644;2023-06-04T01:07:20;32.65;;;30.73;;
30068;SDS011;16894;49.456;10.644;2023-06-04T01:09:48;28.42;;;26.77;;
30068;SDS011;16894;49.456;10.644;2023-06-04T01:12:15;24.50;;;22.92;;
30068;SDS011;16894;49.456;10.644;2023-06-04T01:14:41;21.30;;;19.83;;
30068;SDS011;16894;49.456;10.644;2023-06-04T01:27:57;17.15;;;16.15;;
30068;SDS011;16894;49.456;10.644;2023-06-04T01:30:28;19.02;;;17.75;;
30068;SDS011;16894;49.456;10.644;2023-06-04T01:32:56;16.20;;;15.20;;
30068;SDS011;16894;49.456;10.644;2023-06-04T01:35:23;18.73;;;16.95;;
30068;SDS011;16894;49.456;10.644;2023-06-04T01:37:49;13.57;;;12.75;;
30068;SDS011;16894;49.456;10.644;2023-06-04T01:40:16;14.05;;;13.15;;
30068;SDS011;16894;49.456;10.644;2023-06-04T01:42:41;16.33;;;15.23;;
30068;SDS011;16894;49.456;10.644;2023-06-04T01:45:08;13.52;;;12.27;;
30068;SDS011;16894;49.456;10.644;2023-06-04T01:47:34;12.30;;;11.38;;
30068;SDS011;16894;49.456;10.644;2023-06-04T01:50:09;11.30;;;10.40;;
30068;SDS011;16894;49.456;10.644;2023-06-04T01:52:38;10.65;;;9.98;;
30068;SDS011;16894;49.456;10.644;2023-06-04T01:55:05;12.00;;;11.25;;
30068;SDS011;16894;49.456;10.644;2023-06-04T01:57:32;12.00;;;11.30;;
30068;SDS011;16894;49.456;10.644;2023-06-04T02:00:02;13.02;;;12.25;;
30068;SDS011;16894;49.456;10.644;2023-06-04T02:02:29;13.15;;;12.32;;
30068;SDS011;16894;49.456;10.644;2023-06-04T02:04:54;11.83;;;11.13;;
30068;SDS011;16894;49.456;10.644;2023-06-04T02:07:20;13.87;;;12.33;;
30068;SDS011;16894;49.456;10.644;2023-06-04T02:09:49;10.93;;;10.23;;
30068;SDS011;16894;49.456;10.644;2023-06-04T02:12:15;9.75;;;9.15;;
30068;SDS011;16894;49.456;10.644;2023-06-04T02:14:41;10.68;;;9.77;;
30068;SDS011;16894;49.456;10.644;2023-06-04T02:17:08;18.42;;;17.23;;
30068;SDS011;16894;49.456;10.644;2023-06-04T02:19:41;9.60;;;8.80;;
30068;SDS011;16894;49.456;10.644;2023-06-04T02:22:10;11.90;;;9.55;;
30068;SDS011;16894;49.456;10.644;2023-06-04T02:24:37;9.38;;;8.63;;
30068;SDS011;16894;49.456;10.644;2023-06-04T02:27:04;9.93;;;9.23;;
30068;SDS011;16894;49.456;10.644;2023-06-04T02:29:31;10.75;;;10.07;;
30068;SDS011;16894;49.456;10.644;2023-06-04T02:31:57;10.40;;;9.68;;
30068;SDS011;16894;49.456;10.644;2023-06-04T02:34:22;10.10;;;9.43;;
30068;SDS011;16894;49.456;10.644;2023-06-04T02:36:48;10.93;;;10.23;;
30068;SDS011;16894;49.456;10.644;2023-06-04T02:39:16;9.75;;;9.15;;
30068;SDS011;16894;49.456;10.644;2023-06-04T02:41:43;10.05;;;9.18;;
30068;SDS011;16894;49.456;10.644;2023-06-04T02:44:08;10.37;;;9.67;;
30068;SDS011;16894;49.456;10.644;2023-06-04T02:46:34;9.80;;;9.20;;
30068;SDS011;16894;49.456;10.644;2023-06-04T02:49:00;12.30;;;11.40;;
30068;SDS011;16894;49.456;10.644;2023-06-04T02:51:25;10.27;;;9.67;;
30068;SDS011;16894;49.456;10.644;2023-06-04T02:53:53;10.90;;;10.20;;
30068;SDS011;16894;49.456;10.644;2023-06-04T02:56:19;10.95;;;10.27;;
30068;SDS011;16894;49.456;10.644;2023-06-04T02:58:49;11.10;;;10.30;;
30068;SDS011;16894;49.456;10.644;2023-06-04T03:01:20;11.48;;;10.52;;
30068;SDS011;16894;49.456;10.644;2023-06-04T03:03:50;15.57;;;14.48;;
30068;SDS011;16894;49.456;10.644;2023-06-04T03:06:16;15.05;;;13.95;;
30068;SDS011;16894;49.456;10.644;2023-06-04T03:08:45;15.45;;;14.52;;
30068;SDS011;16894;49.456;10.644;2023-06-04T03:11:11;17.27;;;16.27;;
30068;SDS011;16894;49.456;10.644;2023-06-04T03:13:37;16.60;;;15.57;;
30068;SDS011;16894;49.456;10.644;2023-06-04T03:16:03;15.25;;;14.35;;
30068;SDS011;16894;49.456;10.644;2023-06-04T03:18:34;15.57;;;14.57;;
30068;SDS011;16894;49.456;10.644;2023-06-04T03:21:05;14.93;;;14.05;;
30068;SDS011;16894;49.456;10.644;2023-06-04T03:23:31;15.23;;;14.13;;
30068;SDS011;16894;49.456;10.644;2023-06-04T03:25:57;16.85;;;15.88;;
30068;SDS011;16894;49.456;10.644;2023-06-04T03:28:23;18.33;;;17.23;;
30068;SDS011;16894;49.456;10.644;2023-06-04T03:30:49;17.70;;;16.60;;
30068;SDS011;16894;49.456;10.644;2023-06-04T03:33:14;18.30;;;17.17;;
30068;SDS011;16894;49.456;10.644;2023-06-04T03:35:40;18.75;;;17.55;;
30068;SDS011;16894;49.456;10.644;2023-06-04T03:38:06;19.58;;;18.48;;
30068;SDS011;16894;49.456;10.644;2023-06-04T03:40:33;18.15;;;17.08;;
30068;SDS011;16894;49.456;10.644;2023-06-04T03:42:59;19.90;;;18.60;;
30068;SDS011;16894;49.456;10.644;2023-06-04T03:45:25;18.85;;;17.75;;
30068;SDS011;16894;49.456;10.644;2023-06-04T03:47:51;15.90;;;14.93;;
30068;SDS011;16894;49.456;10.644;2023-06-04T03:50:17;15.60;;;14.60;;
30068;SDS011;16894;49.456;10.644;2023-06-04T03:55:09;14.75;;;13.75;;
30068;SDS011;16894;49.456;10.644;2023-06-04T03:57:36;15.98;;;14.77;;
30068;SDS011;16894;49.456;10.644;2023-06-04T04:00:04;15.48;;;14.57;;
30068;SDS011;16894;49.456;10.644;2023-06-04T04:02:31;14.63;;;13.82;;
30068;SDS011;16894;49.456;10.644;2023-06-04T04:04:57;15.70;;;14.53;;
30068;SDS011;16894;49.456;10.644;2023-06-04T04:07:23;15.10;;;14.00;;
30068;SDS011;16894;49.456;10.644;2023-06-04T04:09:49;15.25;;;14.35;;
30068;SDS011;16894;49.456;10.644;2023-06-04T04:12:16;14.13;;;13.30;;
30068;SDS011;16894;49.456;10.644;2023-06-04T04:14:42;14.23;;;13.32;;
30068;SDS011;16894;49.456;10.644;2023-06-04T04:17:07;14.37;;;13.37;;
30068;SDS011;16894;49.456;10.644;2023-06-04T04:19:33;13.90;;;13.00;;
30068;SDS011;16894;49.456;10.644;2023-06-04T04:21:59;13.30;;;12.50;;
30068;SDS011;16894;49.456;10.644;2023-06-04T04:24:25;16.80;;;15.50;;
30068;SDS011;16894;49.456;10.644;2023-06-04T04:26:52;13.80;;;12.88;;
30068;SDS011;16894;49.456;10.644;2023-06-04T04:31:48;13.85;;;12.80;;
30068;SDS011;16894;49.456;10.644;2023-06-04T04:34:14;15.07;;;14.07;;
30068;SDS011;16894;49.456;10.644;2023-06-04T04:36:40;18.00;;;16.83;;
30068;SDS011;16894;49.456;10.644;2023-06-04T04:39:06;18.93;;;17.83;;
30068;SDS011;16894;49.456;10.644;2023-06-04T04:41:32;17.75;;;16.65;;
30068;SDS011;16894;49.456;10.644;2023-06-04T04:44:06;17.33;;;16.20;;
30068;SDS011;16894;49.456;10.644;2023-06-04T04:46:32;14.82;;;13.82;;
30068;SDS011;16894;49.456;10.644;2023-06-04T04:48:58;16.07;;;15.03;;
30068;SDS011;16894;49.456;10.644;2023-06-04T04:51:23;23.80;;;22.43;;
30068;SDS011;16894;49.456;10.644;2023-06-04T04:53:49;31.30;;;29.00;;
30068;SDS011;16894;49.456;10.644;2023-06-04T04:56:15;25.00;;;23.48;;
30068;SDS011;16894;49.456;10.644;2023-06-04T04:58:41;21.90;;;20.43;;
30068;SDS011;16894;49.456;10.644;2023-06-04T05:01:07;26.67;;;24.98;;
30068;SDS011;16894;49.456;10.644;2023-06-04T05:03:32;19.57;;;18.37;;
30068;SDS011;16894;49.456;10.644;2023-06-04T05:05:58;17.10;;;15.83;;
30068;SDS011;16894;49.456;10.644;2023-06-04T05:08:24;14.87;;;13.97;;
30068;SDS011;16894;49.456;10.644;2023-06-04T05:10:50;12.17;;;11.37;;
30068;SDS011;16894;49.456;10.644;2023-06-04T05:13:15;15.35;;;14.20;;
30068;SDS011;16894;49.456;10.644;2023-06-04T05:15:42;11.90;;;11.10;;
30068;SDS011;16894;49.456;10.644;2023-06-04T05:18:08;13.37;;;12.03;;
30068;SDS011;16894;49.456;10.644;2023-06-04T05:20:34;12.53;;;11.50;;
30068;SDS011;16894;49.456;10.644;2023-06-04T05:23:03;13.10;;;12.30;;
30068;SDS011;16894;49.456;10.644;2023-06-04T05:25:29;15.90;;;14.80;;
30068;SDS011;16894;49.456;10.644;2023-06-04T05:27:57;15.40;;;14.25;;
30068;SDS011;16894;49.456;10.644;2023-06-04T05:30:23;15.75;;;14.80;;
30068;SDS011;16894;49.456;10.644;2023-06-04T05:32:49;15.05;;;14.15;;
30068;SDS011;16894;49.456;10.644;2023-06-04T05:35:16;13.38;;;12.63;;
30068;SDS011;16894;49.456;10.644;2023-06-04T05:37:42;12.25;;;11.55;;
30068;SDS011;16894;49.456;10.644;2023-06-04T05:40:10;13.38;;;12.48;;
30068;SDS011;16894;49.456;10.644;2023-06-04T05:42:37;13.48;;;12.65;;
30068;SDS011;16894;49.456;10.644;2023-06-04T05:47:30;15.60;;;14.65;;
30068;SDS011;16894;49.456;10.644;2023-06-04T05:49:56;21.50;;;20.07;;
30068;SDS011;16894;49.456;10.644;2023-06-04T05:52:22;19.73;;;18.50;;
30068;SDS011;16894;49.456;10.644;2023-06-04T05:54:48;23.35;;;21.92;;
30068;SDS011;16894;49.456;10.644;2023-06-04T05:57:14;17.88;;;16.77;;
30068;SDS011;16894;49.456;10.644;2023-06-04T05:59:40;14.50;;;13.40;;
30068;SDS011;16894;49.456;10.644;2023-06-04T06:02:05;14.70;;;13.80;;
30068;SDS011;16894;49.456;10.644;2023-06-04T06:04:32;23.42;;;21.88;;
30068;SDS011;16894;49.456;10.644;2023-06-04T06:06:58;35.97;;;33.90;;
30068;SDS011;16894;49.456;10.644;2023-06-04T06:09:23;368.33;;;307.70;;
30068;SDS011;16894;49.456;10.644;2023-06-04T06:11:49;106.37;;;100.07;;
30068;SDS011;16894;49.456;10.644;2023-06-04T06:14:14;194.97;;;183.33;;
30068;SDS011;16894;49.456;10.644;2023-06-04T06:16:40;352.83;;;331.85;;
30068;SDS011;16894;49.456;10.644;2023-06-04T06:19:06;529.03;;;494.63;;
30068;SDS011;16894;49.456;10.644;2023-06-04T06:21:32;720.03;;;666.33;;
30068;SDS011;16894;49.456;10.644;2023-06-04T06:23:58;807.25;;;744.00;;
30068;SDS011;16894;49.456;10.644;2023-06-04T06:26:24;824.67;;;761.20;;
30068;SDS011;16894;49.456;10.644;2023-06-04T06:28:50;827.35;;;762.28;;
30068;SDS011;16894;49.456;10.644;2023-06-04T06:31:16;795.72;;;734.08;;
30068;SDS011;16894;49.456;10.644;2023-06-04T06:33:41;771.13;;;712.07;;
30068;SDS011;16894;49.456;10.644;2023-06-04T06:36:10;767.40;;;708.50;;
30068;SDS011;16894;49.456;10.644;2023-06-04T06:38:43;812.47;;;749.30;;
30068;SDS011;16894;49.456;10.644;2023-06-04T06:43:35;772.88;;;713.38;;
30068;SDS011;16894;49.456;10.644;2023-06-04T06:46:01;830.30;;;764.20;;
30068;SDS011;16894;49.456;10.644;2023-06-04T06:48:27;821.13;;;756.08;;
30068;SDS011;16894;49.456;10.644;2023-06-04T06:50:53;853.67;;;784.93;;
30068;SDS011;16894;49.456;10.644;2023-06-04T06:53:19;857.38;;;788.40;;
30068;SDS011;16894;49.456;10.644;2023-06-04T06:55:45;880.53;;;808.80;;
30068;SDS011;16894;49.456;10.644;2023-06-04T06:58:11;881.77;;;810.10;;
30068;SDS011;16894;49.456;10.644;2023-06-04T07:00:36;866.47;;;797.03;;
30068;SDS011;16894;49.456;10.644;2023-06-04T07:03:02;897.47;;;823.30;;
30068;SDS011;16894;49.456;10.644;2023-06-04T07:05:29;862.00;;;792.75;;
30068;SDS011;16894;49.456;10.644;2023-06-04T07:07:55;876.95;;;802.63;;
30068;SDS011;16894;49.456;10.644;2023-06-04T07:10:22;855.80;;;785.65;;
30068;SDS011;16894;49.456;10.644;2023-06-04T07:12:48;853.92;;;785.45;;
30068;SDS011;16894;49.456;10.644;2023-06-04T07:15:14;833.15;;;766.45;;
30068;SDS011;16894;49.456;10.644;2023-06-04T07:17:40;883.58;;;809.28;;
30068;SDS011;16894;49.456;10.644;2023-06-04T07:20:05;833.80;;;764.77;;
30068;SDS011;16894;49.456;10.644;2023-06-04T07:22:34;863.38;;;792.88;;
30068;SDS011;16894;49.456;10.644;2023-06-04T07:25:00;859.63;;;788.78;;
30068;SDS011;16894;49.456;10.644;2023-06-04T07:27:26;799.85;;;732.83;;
30068;SDS011;16894;49.456;10.644;2023-06-04T07:29:52;1999.90;;;999.90;;
30068;SDS011;16894;49.456;10.644;2023-06-04T07:32:18;1999.90;;;999.90;;
30068;SDS011;16894;49.456;10.644;2023-06-04T07:34:43;1999.90;;;999.90;;
30068;SDS011;16894;49.456;10.644;2023-06-04T07:37:09;1999.90;;;999.90;;
30068;SDS011;16894;49.456;10.644;2023-06-04T07:39:37;1999.90;;;999.90;;
30068;SDS011;16894;49.456;10.644;2023-06-04T07:44:29;1999.90;;;999.90;;
30068;SDS011;16894;49.456;10.644;2023-06-04T07:46:55;1999.90;;;999.90;;
30068;SDS011;16894;49.456;10.644;2023-06-04T07:49:20;1999.90;;;999.90;;
30068;SDS011;16894;49.456;10.644;2023-06-04T07:51:46;1999.90;;;999.90;;
30068;SDS011;16894;49.456;10.644;2023-06-04T07:54:12;1999.90;;;999.90;;
30068;SDS011;16894;49.456;10.644;2023-06-04T07:59:04;1999.90;;;999.90;;
30068;SDS011;16894;49.456;10.644;2023-06-04T08:01:30;1999.90;;;999.90;;
30068;SDS011;16894;49.456;10.644;2023-06-04T08:03:56;1999.90;;;999.90;;
30068;SDS011;16894;49.456;10.644;2023-06-04T08:06:23;1999.90;;;999.90;;
30068;SDS011;16894;49.456;10.644;2023-06-04T08:08:51;1999.90;;;999.90;;
30068;SDS011;16894;49.456;10.644;2023-06-04T08:11:17;1999.90;;;999.90;;
30068;SDS011;16894;49.456;10.644;2023-06-04T08:13:44;1999.90;;;999.90;;
30068;SDS011;16894;49.456;10.644;2023-06-04T08:16:10;1999.90;;;999.90;;
30068;SDS011;16894;49.456;10.644;2023-06-04T08:18:41;1999.90;;;999.90;;
30068;SDS011;16894;49.456;10.644;2023-06-04T08:21:10;1999.90;;;999.90;;
30068;SDS011;16894;49.456;10.644;2023-06-04T08:23:36;1999.90;;;999.90;;
30068;SDS011;16894;49.456;10.644;2023-06-04T08:26:02;1999.90;;;999.90;;
30068;SDS011;16894;49.456;10.644;2023-06-04T08:28:27;1999.90;;;999.90;;
30068;SDS011;16894;49.456;10.644;2023-06-04T08:30:53;1999.90;;;999.90;;
30068;SDS011;16894;49.456;10.644;2023-06-04T08:33:19;1999.90;;;999.90;;
30068;SDS011;16894;49.456;10.644;2023-06-04T08:35:45;1999.90;;;999.90;;
30068;SDS011;16894;49.456;10.644;2023-06-04T08:38:11;1999.90;;;999.90;;
30068;SDS011;16894;49.456;10.644;2023-06-04T08:40:36;1999.90;;;999.90;;
30068;SDS011;16894;49.456;10.644;2023-06-04T08:43:02;1999.90;;;999.90;;
30068;SDS011;16894;49.456;10.644;2023-06-04T08:45:29;1999.90;;;999.90;;
30068;SDS011;16894;49.456;10.644;2023-06-04T08:47:58;1999.90;;;999.90;;
30068;SDS011;16894;49.456;10.644;2023-06-04T08:50:24;1999.90;;;999.90;;
30068;SDS011;16894;49.456;10.644;2023-06-04T08:52:53;1999.90;;;999.90;;
30068;SDS011;16894;49.456;10.644;2023-06-04T08:55:20;1999.90;;;999.90;;
30068;SDS011;16894;49.456;10.644;2023-06-04T08:57:49;1999.90;;;999.90;;
30068;SDS011;16894;49.456;10.644;2023-06-04T09:00:16;1999.90;;;999.90;;
30068;SDS011;16894;49.456;10.644;2023-06-04T09:02:43;1999.90;;;999.90;;
30068;SDS011;16894;49.456;10.644;2023-06-04T09:05:10;1999.90;;;999.90;;
30068;SDS011;16894;49.456;10.644;2023-06-04T09:07:45;1999.90;;;999.90;;
30068;SDS011;16894;49.456;10.644;2023-06-04T09:10:12;1999.90;;;999.90;;
30068;SDS011;16894;49.456;10.644;2023-06-04T09:12:43;1999.90;;;999.90;;
30068;SDS011;16894;49.456;10.644;2023-06-04T09:15:11;1999.90;;;999.90;;
30068;SDS011;16894;49.456;10.644;2023-06-04T09:17:37;1999.90;;;999.90;;
30068;SDS011;16894;49.456;10.644;2023-06-04T09:22:34;1999.90;;;999.90;;
30068;SDS011;16894;49.456;10.644;2023-06-04T09:25:03;1999.90;;;999.90;;
30068;SDS011;16894;49.456;10.644;2023-06-04T09:27:38;1999.90;;;999.90;;
30068;SDS011;16894;49.456;10.644;2023-06-04T09:30:05;1999.90;;;999.90;;
30068;SDS011;16894;49.456;10.644;2023-06-04T09:32:33;1999.90;;;999.90;;
30068;SDS011;16894;49.456;10.644;2023-06-04T09:37:35;1999.90;;;999.90;;
30068;SDS011;16894;49.456;10.644;2023-06-04T09:42:28;1999.90;;;999.90;;
30068;SDS011;16894;49.456;10.644;2023-06-04T09:44:54;1999.90;;;999.90;;
30068;SDS011;16894;49.456;10.644;2023-06-04T09:47:20;1999.90;;;999.90;;
30068;SDS011;16894;49.456;10.644;2023-06-04T09:52:12;1999.90;;;999.90;;
30068;SDS011;16894;49.456;10.644;2023-06-04T09:54:38;1999.90;;;999.90;;
30068;SDS011;16894;49.456;10.644;2023-06-04T09:57:16;1999.90;;;999.90;;
30068;SDS011;16894;49.456;10.644;2023-06-04T09:59:46;1999.90;;;999.90;;
30068;SDS011;16894;49.456;10.644;2023-06-04T10:02:21;1999.90;;;999.90;;
30068;SDS011;16894;49.456;10.644;2023-06-04T10:04:54;1999.90;;;999.90;;
30068;SDS011;16894;49.456;10.644;2023-06-04T10:07:23;1999.90;;;999.90;;
30068;SDS011;16894;49.456;10.644;2023-06-04T10:09:49;1999.90;;;999.90;;
30068;SDS011;16894;49.456;10.644;2023-06-04T10:12:16;1999.90;;;999.90;;
30068;SDS011;16894;49.456;10.644;2023-06-04T10:15:05;1999.90;;;999.90;;
30068;SDS011;16894;49.456;10.644;2023-06-04T10:17:35;1999.90;;;999.90;;
30068;SDS011;16894;49.456;10.644;2023-06-04T10:20:02;1999.90;;;999.90;;
30068;SDS011;16894;49.456;10.644;2023-06-04T10:22:37;1999.90;;;999.90;;
30068;SDS011;16894;49.456;10.644;2023-06-04T10:25:04;1999.90;;;999.90;;
30068;SDS011;16894;49.456;10.644;2023-06-04T10:27:30;1999.90;;;999.90;;
30068;SDS011;16894;49.456;10.644;2023-06-04T10:29:57;1999.90;;;999.90;;
30068;SDS011;16894;49.456;10.644;2023-06-04T10:32:26;1999.90;;;999.90;;
30068;SDS011;16894;49.456;10.644;2023-06-04T10:34:53;1999.90;;;999.90;;
30068;SDS011;16894;49.456;10.644;2023-06-04T10:37:23;1562.07;;;808.42;;
30068;SDS011;16894;49.456;10.644;2023-06-04T10:39:53;276.95;;;260.73;;
30068;SDS011;16894;49.456;10.644;2023-06-04T10:42:21;1999.90;;;999.90;;
30068;SDS011;16894;49.456;10.644;2023-06-04T10:44:48;1999.90;;;999.90;;
30068;SDS011;16894;49.456;10.644;2023-06-04T10:47:19;1999.90;;;999.90;;
30068;SDS011;16894;49.456;10.644;2023-06-04T10:49:52;1999.90;;;999.90;;
30068;SDS011;16894;49.456;10.644;2023-06-04T10:52:19;1999.90;;;999.90;;
30068;SDS011;16894;49.456;10.644;2023-06-04T10:54:46;273.35;;;257.20;;
30068;SDS011;16894;49.456;10.644;2023-06-04T10:57:18;313.33;;;294.77;;
30068;SDS011;16894;49.456;10.644;2023-06-04T10:59:54;282.83;;;266.13;;
30068;SDS011;16894;49.456;10.644;2023-06-04T11:02:24;169.18;;;159.02;;
30068;SDS011;16894;49.456;10.644;2023-06-04T11:04:59;123.78;;;116.50;;
30068;SDS011;16894;49.456;10.644;2023-06-04T11:07:41;200.60;;;188.75;;
30068;SDS011;16894;49.456;10.644;2023-06-04T11:10:08;331.10;;;311.45;;
30068;SDS011;16894;49.456;10.644;2023-06-04T11:13:08;444.98;;;416.73;;
30068;SDS011;16894;49.456;10.644;2023-06-04T11:15:36;478.50;;;447.25;;
30068;SDS011;16894;49.456;10.644;2023-06-04T11:18:16;430.70;;;403.75;;
30068;SDS011;16894;49.456;10.644;2023-06-04T11:20:44;470.83;;;440.45;;
30068;SDS011;16894;49.456;10.644;2023-06-04T11:23:12;382.88;;;359.55;;
30068;SDS011;16894;49.456;10.644;2023-06-04T11:25:38;217.30;;;204.18;;
30068;SDS011;16894;49.456;10.644;2023-06-04T11:28:04;92.63;;;87.13;;
30068;SDS011;16894;49.456;10.644;2023-06-04T11:30:30;50.40;;;47.45;;
30068;SDS011;16894;49.456;10.644;2023-06-04T11:33:05;53.38;;;50.25;;
30068;SDS011;16894;49.456;10.644;2023-06-04T11:35:31;75.18;;;70.80;;
30068;SDS011;16894;49.456;10.644;2023-06-04T11:38:05;131.98;;;124.20;;
30068;SDS011;16894;49.456;10.644;2023-06-04T11:40:31;95.97;;;90.30;;
30068;SDS011;16894;49.456;10.644;2023-06-04T11:42:56;105.55;;;99.32;;
30068;SDS011;16894;49.456;10.644;2023-06-04T11:45:22;146.45;;;137.82;;
30068;SDS011;16894;49.456;10.644;2023-06-04T11:47:54;201.20;;;189.40;;
30068;SDS011;16894;49.456;10.644;2023-06-04T11:50:27;270.48;;;255.13;;
30068;SDS011;16894;49.456;10.644;2023-06-04T11:52:53;328.42;;;309.40;;
30068;SDS011;16894;49.456;10.644;2023-06-04T11:55:19;322.23;;;303.67;;
30068;SDS011;16894;49.456;10.644;2023-06-04T11:57:45;338.55;;;318.75;;
30068;SDS011;16894;49.456;10.644;2023-06-04T12:00:12;340.02;;;320.27;;
30068;SDS011;16894;49.456;10.644;2023-06-04T12:02:50;342.73;;;322.88;;
30068;SDS011;16894;49.456;10.644;2023-06-04T12:05:18;193.93;;;182.65;;
30068;SDS011;16894;49.456;10.644;2023-06-04T12:07:48;392.20;;;368.85;;
30068;SDS011;16894;49.456;10.644;2023-06-04T12:10:16;406.83;;;382.48;;
30068;SDS011;16894;49.456;10.644;2023-06-04T12:12:45;449.58;;;422.05;;
30068;SDS011;16894;49.456;10.644;2023-06-04T12:15:11;473.15;;;443.52;;
30068;SDS011;16894;49.456;10.644;2023-06-04T12:17:48;414.33;;;389.38;;
30068;SDS011;16894;49.456;10.644;2023-06-04T12:20:15;398.30;;;374.75;;
30068;SDS011;16894;49.456;10.644;2023-06-04T12:22:44;357.70;;;336.85;;
30068;SDS011;16894;49.456;10.644;2023-06-04T12:25:11;314.55;;;296.08;;
30068;SDS011;16894;49.456;10.644;2023-06-04T12:27:48;457.50;;;429.35;;
30068;SDS011;16894;49.456;10.644;2023-06-04T12:30:13;459.42;;;430.95;;
30068;SDS011;16894;49.456;10.644;2023-06-04T12:32:40;426.08;;;400.17;;
30068;SDS011;16894;49.456;10.644;2023-06-04T12:35:07;442.55;;;415.30;;
30068;SDS011;16894;49.456;10.644;2023-06-04T12:37:33;318.55;;;299.73;;
30068;SDS011;16894;49.456;10.644;2023-06-04T12:39:58;452.40;;;424.42;;
30068;SDS011;16894;49.456;10.644;2023-06-04T12:42:24;468.83;;;439.73;;
30068;SDS011;16894;49.456;10.644;2023-06-04T12:44:50;462.92;;;434.42;;
30068;SDS011;16894;49.456;10.644;2023-06-04T12:47:16;455.02;;;426.92;;
30068;SDS011;16894;49.456;10.644;2023-06-04T12:49:42;475.50;;;445.83;;
30068;SDS011;16894;49.456;10.644;2023-06-04T12:52:07;447.80;;;420.27;;
30068;SDS011;16894;49.456;10.644;2023-06-04T12:54:33;220.32;;;207.48;;
30068;SDS011;16894;49.456;10.644;2023-06-04T12:57:00;374.00;;;351.80;;
30068;SDS011;16894;49.456;10.644;2023-06-04T12:59:26;349.17;;;328.70;;
30068;SDS011;16894;49.456;10.644;2023-06-04T13:01:52;263.77;;;248.57;;
30068;SDS011;16894;49.456;10.644;2023-06-04T13:04:18;465.70;;;436.80;;
30068;SDS011;16894;49.456;10.644;2023-06-04T13:06:44;267.67;;;251.93;;
30068;SDS011;16894;49.456;10.644;2023-06-04T13:09:13;309.33;;;291.27;;
30068;SDS011;16894;49.456;10.644;2023-06-04T13:11:39;363.75;;;341.80;;
30068;SDS011;16894;49.456;10.644;2023-06-04T13:14:07;389.38;;;365.85;;
30068;SDS011;16894;49.456;10.644;2023-06-04T13:16:34;555.03;;;518.33;;
30068;SDS011;16894;49.456;10.644;2023-06-04T13:19:00;522.25;;;488.17;;
30068;SDS011;16894;49.456;10.644;2023-06-04T13:21:27;361.95;;;340.23;;
30068;SDS011;16894;49.456;10.644;2023-06-04T13:23:53;303.05;;;284.95;;
30068;SDS011;16894;49.456;10.644;2023-06-04T13:26:18;145.30;;;136.68;;
30068;SDS011;16894;49.456;10.644;2023-06-04T13:28:45;82.20;;;77.30;;
30068;SDS011;16894;49.456;10.644;2023-06-04T13:31:11;328.45;;;309.13;;
30068;SDS011;16894;49.456;10.644;2023-06-04T13:33:37;115.63;;;108.82;;
30068;SDS011;16894;49.456;10.644;2023-06-04T13:36:03;465.92;;;436.95;;
30068;SDS011;16894;49.456;10.644;2023-06-04T13:38:30;478.02;;;447.13;;
30068;SDS011;16894;49.456;10.644;2023-06-04T13:40:56;433.70;;;406.77;;
30068;SDS011;16894;49.456;10.644;2023-06-04T13:43:21;453.73;;;425.10;;
30068;SDS011;16894;49.456;10.644;2023-06-04T13:45:47;333.58;;;313.63;;
30068;SDS011;16894;49.456;10.644;2023-06-04T13:48:13;110.05;;;103.47;;
30068;SDS011;16894;49.456;10.644;2023-06-04T13:50:40;294.75;;;277.15;;
30068;SDS011;16894;49.456;10.644;2023-06-04T13:53:06;311.13;;;293.02;;
30068;SDS011;16894;49.456;10.644;2023-06-04T13:55:32;396.40;;;372.58;;
30068;SDS011;16894;49.456;10.644;2023-06-04T13:57:58;199.98;;;188.25;;
30068;SDS011;16894;49.456;10.644;2023-06-04T14:00:24;107.70;;;101.30;;
30068;SDS011;16894;49.456;10.644;2023-06-04T14:02:49;63.22;;;59.63;;
30068;SDS011;16894;49.456;10.644;2023-06-04T14:05:16;130.88;;;123.32;;
30068;SDS011;16894;49.456;10.644;2023-06-04T14:07:42;93.88;;;88.30;;
30068;SDS011;16894;49.456;10.644;2023-06-04T14:10:08;107.22;;;100.90;;
30068;SDS011;16894;49.456;10.644;2023-06-04T14:12:35;58.63;;;55.17;;
30068;SDS011;16894;49.456;10.644;2023-06-04T14:15:03;62.40;;;58.75;;
30068;SDS011;16894;49.456;10.644;2023-06-04T14:17:30;65.47;;;61.58;;
30068;SDS011;16894;49.456;10.644;2023-06-04T14:19:56;79.80;;;75.18;;
30068;SDS011;16894;49.456;10.644;2023-06-04T14:22:22;93.10;;;87.63;;
30068;SDS011;16894;49.456;10.644;2023-06-04T14:24:47;181.82;;;171.13;;
30068;SDS011;16894;49.456;10.644;2023-06-04T14:27:13;93.65;;;88.10;;
30068;SDS011;16894;49.456;10.644;2023-06-04T14:29:39;124.40;;;114.72;;
30068;SDS011;16894;49.456;10.644;2023-06-04T14:32:05;211.80;;;199.40;;